In Rescue
 
Open Full Screen Window  High Contrast Mode
Wind Gusting 00 knots
04
May 25, 2022 9:19 PM CDT
Weather Information
Wind Direction
  360 °
Wind Speed
  04 kt (5 mph)
Wind Gust
  00 kt (0 mph)
Altimeter
29.80 in
Visibility
5 SM
Temperature
11° C
52° F
Dewpoint
11° C
52° F
Humidity
100%
1hr Rain Fall
00.00 in.
24hr Rain Fall
00.42 in.
Sky Condition
Overcast @ 200 ft
LIFR

METAR K9MN 260219Z AUTO 36004KT 5SM OVC002 11/11 A2980 RMK AO1

FAA Disclaimer: The data displayed is for advisory purposes only and is not to be used for flight planning or operations.